sensor_id;sensor_type;location;lat;lon;timestamp;pressure;altitude;pressure_sealevel;temperature;humidity
19096;BME280;9680;52.520;13.332;2022-09-17T00:00:20;99994.13;;;11.76;95.21
19096;BME280;9680;52.520;13.332;2022-09-17T00:02:49;99997.31;;;11.82;94.78
19096;BME280;9680;52.520;13.332;2022-09-17T00:05:15;99998.94;;;11.84;94.72
19096;BME280;9680;52.520;13.332;2022-09-17T00:07:41;100007.84;;;11.80;94.37
19096;BME280;9680;52.520;13.332;2022-09-17T00:10:07;100015.59;;;11.82;94.51
19096;BME280;9680;52.520;13.332;2022-09-17T00:12:37;100008.44;;;11.85;94.52
19096;BME280;9680;52.520;13.332;2022-09-17T00:15:03;100002.38;;;11.85;94.66
19096;BME280;9680;52.520;13.332;2022-09-17T00:17:29;100010.19;;;11.85;93.77
19096;BME280;9680;52.520;13.332;2022-09-17T00:19:54;100030.84;;;11.89;94.58
19096;BME280;9680;52.520;13.332;2022-09-17T00:22:20;100027.63;;;11.84;93.50
19096;BME280;9680;52.520;13.332;2022-09-17T00:24:46;100027.63;;;11.84;93.55
19096;BME280;9680;52.520;13.332;2022-09-17T00:27:11;100028.28;;;11.88;94.56
19096;BME280;9680;52.520;13.332;2022-09-17T00:29:37;100023.59;;;11.94;94.21
19096;BME280;9680;52.520;13.332;2022-09-17T00:32:08;100024.28;;;11.98;94.10
19096;BME280;9680;52.520;13.332;2022-09-17T00:34:34;100034.72;;;11.98;93.77
19096;BME280;9680;52.520;13.332;2022-09-17T00:36:59;100032.94;;;11.99;93.56
19096;BME280;9680;52.520;13.332;2022-09-17T00:39:24;100031.13;;;12.01;93.29
19096;BME280;9680;52.520;13.332;2022-09-17T00:41:50;100032.47;;;12.08;93.46
19096;BME280;9680;52.520;13.332;2022-09-17T00:47:26;100036.00;;;12.07;92.29
19096;BME280;9680;52.520;13.332;2022-09-17T00:50:05;100035.25;;;12.05;92.68
19096;BME280;9680;52.520;13.332;2022-09-17T00:52:38;100041.22;;;12.07;92.93
19096;BME280;9680;52.520;13.332;2022-09-17T00:55:20;100053.16;;;12.11;92.26
19096;BME280;9680;52.520;13.332;2022-09-17T00:57:48;100042.66;;;12.13;92.66
19096;BME280;9680;52.520;13.332;2022-09-17T01:00:19;100045.84;;;12.18;92.33
19096;BME280;9680;52.520;13.332;2022-09-17T01:02:45;100054.34;;;12.21;92.05
19096;BME280;9680;52.520;13.332;2022-09-17T01:05:11;100045.69;;;12.21;91.97
19096;BME280;9680;52.520;13.332;2022-09-17T01:07:58;100041.09;;;12.24;91.66
19096;BME280;9680;52.520;13.332;2022-09-17T01:10:53;100053.91;;;12.29;91.31
19096;BME280;9680;52.520;13.332;2022-09-17T01:13:42;100059.06;;;12.31;91.51
19096;BME280;9680;52.520;13.332;2022-09-17T01:16:43;100062.25;;;12.36;91.21
19096;BME280;9680;52.520;13.332;2022-09-17T01:31:02;100063.81;;;12.55;89.81
19096;BME280;9680;52.520;13.332;2022-09-17T01:36:44;100061.22;;;12.55;89.96
19096;BME280;9680;52.520;13.332;2022-09-17T01:39:30;100061.13;;;12.56;89.42
19096;BME280;9680;52.520;13.332;2022-09-17T01:42:23;100071.50;;;12.58;89.51
19096;BME280;9680;52.520;13.332;2022-09-17T01:45:07;100064.75;;;12.53;89.70
19096;BME280;9680;52.520;13.332;2022-09-17T01:50:24;100076.31;;;12.49;90.00
19096;BME280;9680;52.520;13.332;2022-09-17T01:52:52;100078.56;;;12.56;89.69
19096;BME280;9680;52.520;13.332;2022-09-17T01:55:20;100078.00;;;12.50;89.89
19096;BME280;9680;52.520;13.332;2022-09-17T02:00:20;100086.19;;;12.44;91.25
19096;BME280;9680;52.520;13.332;2022-09-17T02:02:57;100088.09;;;12.41;91.31
19096;BME280;9680;52.520;13.332;2022-09-17T02:05:49;100088.38;;;12.36;91.46
19096;BME280;9680;52.520;13.332;2022-09-17T02:08:46;100088.47;;;12.34;91.83
19096;BME280;9680;52.520;13.332;2022-09-17T02:11:14;100090.91;;;12.37;92.31
19096;BME280;9680;52.520;13.332;2022-09-17T02:16:18;100087.09;;;12.43;93.12
19096;BME280;9680;52.520;13.332;2022-09-17T02:24:21;100094.66;;;12.64;92.55
19096;BME280;9680;52.520;13.332;2022-09-17T02:27:18;100095.16;;;12.71;91.97
19096;BME280;9680;52.520;13.332;2022-09-17T02:29:47;100086.97;;;12.77;91.65
19096;BME280;9680;52.520;13.332;2022-09-17T02:32:13;100089.41;;;12.80;91.69
19096;BME280;9680;52.520;13.332;2022-09-17T02:34:39;100081.63;;;12.78;91.43
19096;BME280;9680;52.520;13.332;2022-09-17T02:37:05;100089.00;;;12.72;91.49
19096;BME280;9680;52.520;13.332;2022-09-17T02:39:32;100087.97;;;12.74;91.79
19096;BME280;9680;52.520;13.332;2022-09-17T02:53:30;100081.91;;;12.74;92.78
19096;BME280;9680;52.520;13.332;2022-09-17T02:55:51;100075.81;;;12.73;92.58
19096;BME280;9680;52.520;13.332;2022-09-17T02:58:34;100079.19;;;12.75;92.29
19096;BME280;9680;52.520;13.332;2022-09-17T03:01:05;100079.38;;;12.72;91.93
19096;BME280;9680;52.520;13.332;2022-09-17T03:03:38;100079.47;;;12.71;92.08
19096;BME280;9680;52.520;13.332;2022-09-17T03:06:06;100069.94;;;12.70;92.32
19096;BME280;9680;52.520;13.332;2022-09-17T03:08:35;100078.38;;;12.75;92.67
19096;BME280;9680;52.520;13.332;2022-09-17T03:11:02;100072.09;;;12.77;91.74
19096;BME280;9680;52.520;13.332;2022-09-17T03:13:30;100066.81;;;12.79;91.91
19096;BME280;9680;52.520;13.332;2022-09-17T03:15:56;100073.63;;;12.81;91.72
19096;BME280;9680;52.520;13.332;2022-09-17T03:18:21;100076.22;;;12.81;91.72
19096;BME280;9680;52.520;13.332;2022-09-17T03:20:47;100083.31;;;12.79;91.23
19096;BME280;9680;52.520;13.332;2022-09-17T03:23:13;100073.53;;;12.83;91.46
19096;BME280;9680;52.520;13.332;2022-09-17T03:25:38;100072.69;;;12.82;91.16
19096;BME280;9680;52.520;13.332;2022-09-17T03:28:04;100074.47;;;12.82;91.24
19096;BME280;9680;52.520;13.332;2022-09-17T03:30:29;100074.19;;;12.87;91.01
19096;BME280;9680;52.520;13.332;2022-09-17T03:32:55;100080.91;;;12.91;90.79
19096;BME280;9680;52.520;13.332;2022-09-17T03:35:20;100074.19;;;12.87;90.78
19096;BME280;9680;52.520;13.332;2022-09-17T03:37:46;100073.06;;;12.91;90.57
19096;BME280;9680;52.520;13.332;2022-09-17T03:40:11;100072.75;;;12.97;90.32
19096;BME280;9680;52.520;13.332;2022-09-17T03:42:37;100084.88;;;12.98;89.79
19096;BME280;9680;52.520;13.332;2022-09-17T03:45:03;100081.03;;;12.89;89.47
19096;BME280;9680;52.520;13.332;2022-09-17T03:47:29;100080.53;;;12.82;89.75
19096;BME280;9680;52.520;13.332;2022-09-17T03:49:54;100088.38;;;12.82;90.26
19096;BME280;9680;52.520;13.332;2022-09-17T03:52:20;100082.97;;;12.86;89.88
19096;BME280;9680;52.520;13.332;2022-09-17T03:54:45;100095.84;;;12.89;89.97
19096;BME280;9680;52.520;13.332;2022-09-17T03:57:11;100086.25;;;12.89;89.93
19096;BME280;9680;52.520;13.332;2022-09-17T03:59:36;100082.88;;;12.87;89.61
19096;BME280;9680;52.520;13.332;2022-09-17T04:02:02;100095.09;;;12.87;89.88
19096;BME280;9680;52.520;13.332;2022-09-17T04:04:27;100097.63;;;12.88;89.90
19096;BME280;9680;52.520;13.332;2022-09-17T04:06:53;100092.31;;;12.90;90.05
19096;BME280;9680;52.520;13.332;2022-09-17T04:09:19;100096.59;;;12.91;89.65
19096;BME280;9680;52.520;13.332;2022-09-17T04:11:45;100098.22;;;12.93;89.83
19096;BME280;9680;52.520;13.332;2022-09-17T04:14:10;100094.66;;;12.94;89.54
19096;BME280;9680;52.520;13.332;2022-09-17T04:16:36;100098.03;;;12.96;89.06
19096;BME280;9680;52.520;13.332;2022-09-17T04:19:02;100097.03;;;12.99;89.21
19096;BME280;9680;52.520;13.332;2022-09-17T04:21:27;100096.84;;;13.02;88.86
19096;BME280;9680;52.520;13.332;2022-09-17T04:23:53;100091.69;;;13.01;88.94
19096;BME280;9680;52.520;13.332;2022-09-17T04:26:18;100089.75;;;13.04;89.14
19096;BME280;9680;52.520;13.332;2022-09-17T04:28:43;100092.38;;;13.04;88.59
19096;BME280;9680;52.520;13.332;2022-09-17T04:31:09;100098.22;;;13.08;88.31
19096;BME280;9680;52.520;13.332;2022-09-17T04:33:34;100100.97;;;13.06;88.34
19096;BME280;9680;52.520;13.332;2022-09-17T04:36:02;100103.56;;;13.06;88.25
19096;BME280;9680;52.520;13.332;2022-09-17T04:38:27;100102.91;;;13.03;88.27
19096;BME280;9680;52.520;13.332;2022-09-17T04:40:53;100095.91;;;13.03;88.43
19096;BME280;9680;52.520;13.332;2022-09-17T04:43:21;100098.22;;;13.08;88.17
19096;BME280;9680;52.520;13.332;2022-09-17T04:45:47;100106.84;;;13.10;87.77
19096;BME280;9680;52.520;13.332;2022-09-17T04:48:13;100102.16;;;13.15;87.76
19096;BME280;9680;52.520;13.332;2022-09-17T04:50:39;100102.28;;;13.14;87.69
19096;BME280;9680;52.520;13.332;2022-09-17T04:53:04;100103.41;;;13.09;87.07
19096;BME280;9680;52.520;13.332;2022-09-17T04:55:30;100098.41;;;13.05;86.50
19096;BME280;9680;52.520;13.332;2022-09-17T04:57:56;100099.88;;;12.94;87.75
19096;BME280;9680;52.520;13.332;2022-09-17T05:00:22;100099.63;;;12.99;87.90
19096;BME280;9680;52.520;13.332;2022-09-17T05:02:50;100109.06;;;13.02;87.68
19096;BME280;9680;52.520;13.332;2022-09-17T05:05:17;100103.94;;;13.00;87.58
19096;BME280;9680;52.520;13.332;2022-09-17T05:07:44;100108.06;;;13.04;87.96
19096;BME280;9680;52.520;13.332;2022-09-17T05:10:10;100107.00;;;13.07;87.51
19096;BME280;9680;52.520;13.332;2022-09-17T05:12:36;100107.88;;;13.07;87.36
19096;BME280;9680;52.520;13.332;2022-09-17T05:15:02;100111.59;;;13.03;87.53
19096;BME280;9680;52.520;13.332;2022-09-17T05:17:28;100115.91;;;13.04;88.01
19096;BME280;9680;52.520;13.332;2022-09-17T05:19:54;100119.25;;;13.06;87.83
19096;BME280;9680;52.520;13.332;2022-09-17T05:22:19;100120.00;;;13.08;87.94
19096;BME280;9680;52.520;13.332;2022-09-17T05:24:45;100116.28;;;13.13;88.17
19096;BME280;9680;52.520;13.332;2022-09-17T05:27:11;100120.47;;;13.15;87.81
19096;BME280;9680;52.520;13.332;2022-09-17T05:29:37;100118.53;;;13.19;87.97
19096;BME280;9680;52.520;13.332;2022-09-17T05:32:03;100122.53;;;13.24;87.65
19096;BME280;9680;52.520;13.332;2022-09-17T05:34:28;100124.81;;;13.31;87.33
19096;BME280;9680;52.520;13.332;2022-09-17T05:36:54;100126.97;;;13.38;87.27
19096;BME280;9680;52.520;13.332;2022-09-17T05:39:19;100125.88;;;13.43;86.92
19096;BME280;9680;52.520;13.332;2022-09-17T05:41:51;100129.81;;;13.50;86.47
19096;BME280;9680;52.520;13.332;2022-09-17T05:44:17;100135.72;;;13.53;86.45
19096;BME280;9680;52.520;13.332;2022-09-17T05:46:43;100127.94;;;13.52;86.42
19096;BME280;9680;52.520;13.332;2022-09-17T05:49:08;100133.00;;;13.55;86.52
19096;BME280;9680;52.520;13.332;2022-09-17T05:51:34;100140.56;;;13.60;86.31
19096;BME280;9680;52.520;13.332;2022-09-17T05:53:59;100130.66;;;13.65;86.37
19096;BME280;9680;52.520;13.332;2022-09-17T05:56:25;100137.31;;;13.71;85.92
19096;BME280;9680;52.520;13.332;2022-09-17T05:58:54;100140.50;;;13.61;85.88
19096;BME280;9680;52.520;13.332;2022-09-17T06:01:20;100137.66;;;13.50;85.98
19096;BME280;9680;52.520;13.332;2022-09-17T06:03:45;100143.59;;;13.37;87.07
19096;BME280;9680;52.520;13.332;2022-09-17T06:06:10;100144.06;;;13.30;87.39
19096;BME280;9680;52.520;13.332;2022-09-17T06:08:36;100147.50;;;13.30;87.85
19096;BME280;9680;52.520;13.332;2022-09-17T06:11:06;100144.72;;;13.33;87.69
19096;BME280;9680;52.520;13.332;2022-09-17T06:13:33;100149.88;;;13.35;87.34
19096;BME280;9680;52.520;13.332;2022-09-17T06:15:59;100144.91;;;13.30;87.53
19096;BME280;9680;52.520;13.332;2022-09-17T06:18:26;100154.25;;;13.34;87.56
19096;BME280;9680;52.520;13.332;2022-09-17T06:20:57;100151.72;;;13.33;86.94
19096;BME280;9680;52.520;13.332;2022-09-17T06:23:23;100155.66;;;13.40;86.96
19096;BME280;9680;52.520;13.332;2022-09-17T06:25:50;100161.56;;;13.44;87.06
19096;BME280;9680;52.520;13.332;2022-09-17T06:28:16;100163.94;;;13.48;86.77
19096;BME280;9680;52.520;13.332;2022-09-17T06:30:42;100158.59;;;13.50;86.21
19096;BME280;9680;52.520;13.332;2022-09-17T06:33:07;100167.00;;;13.55;85.99
19096;BME280;9680;52.520;13.332;2022-09-17T06:35:33;100160.22;;;13.67;85.82
19096;BME280;9680;52.520;13.332;2022-09-17T06:37:58;100169.00;;;13.80;85.46
19096;BME280;9680;52.520;13.332;2022-09-17T06:40:24;100172.34;;;13.82;84.81
19096;BME280;9680;52.520;13.332;2022-09-17T06:42:56;100171.91;;;13.76;84.52
19096;BME280;9680;52.520;13.332;2022-09-17T06:45:21;100174.72;;;13.73;83.83
19096;BME280;9680;52.520;13.332;2022-09-17T06:47:46;100175.28;;;13.63;83.81
19096;BME280;9680;52.520;13.332;2022-09-17T06:50:12;100173.00;;;13.57;83.22
19096;BME280;9680;52.520;13.332;2022-09-17T06:52:37;100177.94;;;13.47;83.00
19096;BME280;9680;52.520;13.332;2022-09-17T06:55:03;100175.03;;;13.52;83.66
19096;BME280;9680;52.520;13.332;2022-09-17T06:57:29;100180.00;;;13.57;82.63
19096;BME280;9680;52.520;13.332;2022-09-17T06:59:55;100180.28;;;13.52;82.47
19096;BME280;9680;52.520;13.332;2022-09-17T07:02:20;100178.91;;;13.61;82.55
19096;BME280;9680;52.520;13.332;2022-09-17T07:04:45;100180.84;;;13.57;81.87
19096;BME280;9680;52.520;13.332;2022-09-17T07:07:11;100186.94;;;13.58;82.30
19096;BME280;9680;52.520;13.332;2022-09-17T07:09:36;100187.31;;;13.66;82.44
19096;BME280;9680;52.520;13.332;2022-09-17T07:12:06;100177.16;;;13.76;81.74
19096;BME280;9680;52.520;13.332;2022-09-17T07:14:32;100176.59;;;13.85;80.76
19096;BME280;9680;52.520;13.332;2022-09-17T07:16:57;100174.06;;;13.98;79.65
19096;BME280;9680;52.520;13.332;2022-09-17T07:19:23;100172.56;;;14.08;78.80
19096;BME280;9680;52.520;13.332;2022-09-17T07:21:48;100182.66;;;14.15;78.65
19096;BME280;9680;52.520;13.332;2022-09-17T07:24:14;100185.47;;;14.11;78.02
19096;BME280;9680;52.520;13.332;2022-09-17T07:26:42;100185.16;;;14.16;78.09
19096;BME280;9680;52.520;13.332;2022-09-17T07:29:07;100185.25;;;14.29;78.04
19096;BME280;9680;52.520;13.332;2022-09-17T07:31:33;100188.91;;;14.41;77.01
19096;BME280;9680;52.520;13.332;2022-09-17T07:33:59;100182.22;;;14.50;77.18
19096;BME280;9680;52.520;13.332;2022-09-17T07:36:25;100187.13;;;14.69;76.88
19096;BME280;9680;52.520;13.332;2022-09-17T07:38:51;100183.31;;;14.75;75.36
19096;BME280;9680;52.520;13.332;2022-09-17T07:41:17;100181.31;;;14.78;74.69
19096;BME280;9680;52.520;13.332;2022-09-17T07:43:43;100185.88;;;14.89;74.58
19096;BME280;9680;52.520;13.332;2022-09-17T07:46:16;100189.25;;;14.91;73.50
19096;BME280;9680;52.520;13.332;2022-09-17T07:48:42;100178.47;;;14.96;73.73
19096;BME280;9680;52.520;13.332;2022-09-17T07:51:22;100179.91;;;14.87;73.21
19096;BME280;9680;52.520;13.332;2022-09-17T07:53:56;100180.91;;;14.84;72.82
19096;BME280;9680;52.520;13.332;2022-09-17T07:56:26;100179.50;;;14.93;72.16
19096;BME280;9680;52.520;13.332;2022-09-17T07:58:53;100182.72;;;14.84;72.17
19096;BME280;9680;52.520;13.332;2022-09-17T08:01:19;100190.38;;;14.87;72.88
19096;BME280;9680;52.520;13.332;2022-09-17T08:03:49;100190.28;;;14.89;72.18
19096;BME280;9680;52.520;13.332;2022-09-17T08:06:17;100194.69;;;14.88;72.25
19096;BME280;9680;52.520;13.332;2022-09-17T08:08:44;100193.47;;;14.94;72.06
19096;BME280;9680;52.520;13.332;2022-09-17T08:11:12;100195.28;;;15.06;72.31
19096;BME280;9680;52.520;13.332;2022-09-17T08:13:39;100191.19;;;15.15;71.72
19096;BME280;9680;52.520;13.332;2022-09-17T08:16:07;100186.88;;;15.14;69.95
19096;BME280;9680;52.520;13.332;2022-09-17T08:18:34;100185.94;;;15.02;70.08
19096;BME280;9680;52.520;13.332;2022-09-17T08:21:02;100185.94;;;15.02;70.15
19096;BME280;9680;52.520;13.332;2022-09-17T08:23:29;100182.81;;;15.23;70.65
19096;BME280;9680;52.520;13.332;2022-09-17T08:25:59;100186.09;;;15.39;68.60
19096;BME280;9680;52.520;13.332;2022-09-17T08:28:27;100182.31;;;15.31;68.60
19096;BME280;9680;52.520;13.332;2022-09-17T08:30:54;100178.97;;;15.28;68.21
19096;BME280;9680;52.520;13.332;2022-09-17T08:33:23;100182.66;;;15.39;68.87
19096;BME280;9680;52.520;13.332;2022-09-17T08:35:51;100177.63;;;15.62;67.54
19096;BME280;9680;52.520;13.332;2022-09-17T08:38:16;100178.13;;;15.54;66.15
19096;BME280;9680;52.520;13.332;2022-09-17T08:40:53;100176.97;;;15.32;66.40
19096;BME280;9680;52.520;13.332;2022-09-17T08:43:20;100178.34;;;15.38;65.45
19096;BME280;9680;52.520;13.332;2022-09-17T08:45:54;100168.84;;;15.22;64.99
19096;BME280;9680;52.520;13.332;2022-09-17T08:48:21;100189.63;;;15.12;66.12
19096;BME280;9680;52.520;13.332;2022-09-17T08:50:50;100186.88;;;15.01;65.74
19096;BME280;9680;52.520;13.332;2022-09-17T08:53:32;100180.47;;;15.05;66.07
19096;BME280;9680;52.520;13.332;2022-09-17T08:56:15;100184.44;;;14.98;65.31
19096;BME280;9680;52.520;13.332;2022-09-17T08:59:07;100180.69;;;14.75;66.30
19096;BME280;9680;52.520;13.332;2022-09-17T09:01:45;100176.22;;;14.62;66.67
19096;BME280;9680;52.520;13.332;2022-09-17T09:06:52;100196.72;;;14.55;67.52
19096;BME280;9680;52.520;13.332;2022-09-17T09:09:22;100192.13;;;14.59;67.49
19096;BME280;9680;52.520;13.332;2022-09-17T09:12:00;100195.03;;;14.96;67.16
19096;BME280;9680;52.520;13.332;2022-09-17T09:14:31;100199.13;;;15.54;65.92
19096;BME280;9680;52.520;13.332;2022-09-17T09:17:06;100199.28;;;16.04;62.71
19096;BME280;9680;52.520;13.332;2022-09-17T09:19:43;100200.75;;;16.08;60.76
19096;BME280;9680;52.520;13.332;2022-09-17T09:22:38;100194.75;;;16.06;60.51
19096;BME280;9680;52.520;13.332;2022-09-17T09:25:23;100190.53;;;16.04;60.95
19096;BME280;9680;52.520;13.332;2022-09-17T09:33:18;100211.03;;;15.98;60.19
19096;BME280;9680;52.520;13.332;2022-09-17T09:35:45;100210.31;;;15.96;60.28
19096;BME280;9680;52.520;13.332;2022-09-17T09:38:17;100208.63;;;15.95;60.26
19096;BME280;9680;52.520;13.332;2022-09-17T09:40:55;100212.50;;;15.77;61.34
19096;BME280;9680;52.520;13.332;2022-09-17T09:43:33;100228.53;;;15.46;63.49
19096;BME280;9680;52.520;13.332;2022-09-17T09:54:14;100231.13;;;14.78;71.62
19096;BME280;9680;52.520;13.332;2022-09-17T09:56:57;100230.25;;;14.92;70.31
19096;BME280;9680;52.520;13.332;2022-09-17T09:59:27;100227.19;;;15.13;68.43
19096;BME280;9680;52.520;13.332;2022-09-17T10:01:53;100225.38;;;15.41;69.17
19096;BME280;9680;52.520;13.332;2022-09-17T10:04:21;100228.13;;;15.78;65.89
19096;BME280;9680;52.520;13.332;2022-09-17T10:07:10;100217.97;;;16.25;64.96
19096;BME280;9680;52.520;13.332;2022-09-17T10:09:38;100215.81;;;16.43;63.07
19096;BME280;9680;52.520;13.332;2022-09-17T10:14:40;100231.13;;;16.12;58.86
19096;BME280;9680;52.520;13.332;2022-09-17T10:19:39;100234.75;;;15.71;58.61
19096;BME280;9680;52.520;13.332;2022-09-17T10:22:28;100229.63;;;15.95;59.42
19096;BME280;9680;52.520;13.332;2022-09-17T10:24:56;100231.72;;;16.16;57.69
19096;BME280;9680;52.520;13.332;2022-09-17T10:27:23;100226.50;;;16.03;58.40
19096;BME280;9680;52.520;13.332;2022-09-17T10:30:02;100240.97;;;15.83;59.49
19096;BME280;9680;52.520;13.332;2022-09-17T10:32:28;100239.56;;;15.77;60.24
19096;BME280;9680;52.520;13.332;2022-09-17T10:37:43;100235.63;;;15.97;59.98
19096;BME280;9680;52.520;13.332;2022-09-17T10:40:29;100238.13;;;16.12;57.84
19096;BME280;9680;52.520;13.332;2022-09-17T10:45:44;100245.38;;;16.21;57.23
19096;BME280;9680;52.520;13.332;2022-09-17T10:48:18;100243.47;;;16.36;57.34
19096;BME280;9680;52.520;13.332;2022-09-17T10:50:52;100245.78;;;16.41;56.54
19096;BME280;9680;52.520;13.332;2022-09-17T10:53:19;100243.25;;;16.39;57.53
19096;BME280;9680;52.520;13.332;2022-09-17T10:56:21;100241.69;;;16.37;58.47
19096;BME280;9680;52.520;13.332;2022-09-17T10:59:03;100240.44;;;16.29;60.96
19096;BME280;9680;52.520;13.332;2022-09-17T11:02:02;100243.91;;;16.30;60.42
19096;BME280;9680;52.520;13.332;2022-09-17T11:07:43;100239.97;;;16.99;57.14
19096;BME280;9680;52.520;13.332;2022-09-17T11:10:32;100240.97;;;17.09;55.32
19096;BME280;9680;52.520;13.332;2022-09-17T11:13:19;100244.47;;;16.97;55.23
19096;BME280;9680;52.520;13.332;2022-09-17T11:18:44;100241.59;;;16.76;54.89
19096;BME280;9680;52.520;13.332;2022-09-17T11:21:30;100243.56;;;16.85;54.57
19096;BME280;9680;52.520;13.332;2022-09-17T11:26:45;100232.06;;;16.62;53.50
19096;BME280;9680;52.520;13.332;2022-09-17T11:29:24;100236.50;;;16.85;53.51
19096;BME280;9680;52.520;13.332;2022-09-17T11:32:22;100242.38;;;16.89;52.95
19096;BME280;9680;52.520;13.332;2022-09-17T11:35:09;100237.53;;;16.96;53.61
19096;BME280;9680;52.520;13.332;2022-09-17T11:37:42;100243.91;;;17.29;52.74
19096;BME280;9680;52.520;13.332;2022-09-17T11:40:34;100231.28;;;17.45;52.02
19096;BME280;9680;52.520;13.332;2022-09-17T11:43:25;100224.75;;;17.63;51.06
19096;BME280;9680;52.520;13.332;2022-09-17T11:48:58;100235.66;;;17.81;49.99
19096;BME280;9680;52.520;13.332;2022-09-17T11:51:32;100234.25;;;17.88;49.34
19096;BME280;9680;52.520;13.332;2022-09-17T11:54:09;100232.72;;;17.50;49.25
19096;BME280;9680;52.520;13.332;2022-09-17T11:56:43;100223.53;;;17.20;50.84
19096;BME280;9680;52.520;13.332;2022-09-17T11:59:24;100221.38;;;17.13;50.73
19096;BME280;9680;52.520;13.332;2022-09-17T12:01:55;100217.00;;;17.01;51.25
19096;BME280;9680;52.520;13.332;2022-09-17T12:07:00;100219.09;;;16.71;51.36
19096;BME280;9680;52.520;13.332;2022-09-17T12:09:31;100222.09;;;16.78;51.67
19096;BME280;9680;52.520;13.332;2022-09-17T12:12:00;100223.25;;;16.87;51.32
19096;BME280;9680;52.520;13.332;2022-09-17T12:17:03;100230.22;;;16.75;52.10
19096;BME280;9680;52.520;13.332;2022-09-17T12:19:39;100225.09;;;16.73;52.98
19096;BME280;9680;52.520;13.332;2022-09-17T12:22:12;100225.91;;;16.74;52.98
19096;BME280;9680;52.520;13.332;2022-09-17T12:24:42;100230.72;;;16.80;52.99
19096;BME280;9680;52.520;13.332;2022-09-17T12:30:15;100215.34;;;16.87;53.42
19096;BME280;9680;52.520;13.332;2022-09-17T12:33:12;100207.72;;;16.95;52.51
19096;BME280;9680;52.520;13.332;2022-09-17T12:36:11;100207.31;;;17.01;52.33
19096;BME280;9680;52.520;13.332;2022-09-17T12:41:41;100201.75;;;17.17;51.78
19096;BME280;9680;52.520;13.332;2022-09-17T12:44:27;100193.66;;;17.32;50.74
19096;BME280;9680;52.520;13.332;2022-09-17T12:52:42;100194.16;;;16.40;53.34
19096;BME280;9680;52.520;13.332;2022-09-17T12:55:47;100197.13;;;16.22;53.80
19096;BME280;9680;52.520;13.332;2022-09-17T13:01:51;100195.44;;;16.34;49.51
19096;BME280;9680;52.520;13.332;2022-09-17T13:12:47;100204.81;;;16.25;46.47
19096;BME280;9680;52.520;13.332;2022-09-17T13:18:02;100190.31;;;16.33;47.54
19096;BME280;9680;52.520;13.332;2022-09-17T13:20:36;100193.38;;;16.51;47.67
19096;BME280;9680;52.520;13.332;2022-09-17T13:23:04;100199.47;;;16.64;47.63
19096;BME280;9680;52.520;13.332;2022-09-17T13:25:29;100195.81;;;16.78;47.90
19096;BME280;9680;52.520;13.332;2022-09-17T13:28:08;100196.25;;;16.72;48.41
19096;BME280;9680;52.520;13.332;2022-09-17T13:30:59;100189.22;;;16.72;48.61
19096;BME280;9680;52.520;13.332;2022-09-17T13:38:59;100182.94;;;16.86;48.02
19096;BME280;9680;52.520;13.332;2022-09-17T13:41:26;100184.84;;;17.09;48.19
19096;BME280;9680;52.520;13.332;2022-09-17T13:43:53;100196.03;;;17.24;47.36
19096;BME280;9680;52.520;13.332;2022-09-17T13:46:24;100183.09;;;17.21;45.99
19096;BME280;9680;52.520;13.332;2022-09-17T13:48:55;100181.44;;;17.20;45.87
19096;BME280;9680;52.520;13.332;2022-09-17T13:54:04;100192.25;;;17.39;46.62
19096;BME280;9680;52.520;13.332;2022-09-17T13:56:47;100179.22;;;17.02;45.84
19096;BME280;9680;52.520;13.332;2022-09-17T13:59:23;100179.66;;;16.71;46.17
19096;BME280;9680;52.520;13.332;2022-09-17T14:16:20;100168.72;;;17.13;46.03
19096;BME280;9680;52.520;13.332;2022-09-17T14:20:52;100183.03;;;16.98;44.69
19096;BME280;9680;52.520;13.332;2022-09-17T14:23:19;100183.88;;;16.85;45.25
19096;BME280;9680;52.520;13.332;2022-09-17T14:25:52;100187.44;;;16.97;45.86
19096;BME280;9680;52.520;13.332;2022-09-17T14:30:44;100205.63;;;17.00;46.92
19096;BME280;9680;52.520;13.332;2022-09-17T14:33:15;100215.53;;;16.72;47.64
19096;BME280;9680;52.520;13.332;2022-09-17T14:35:55;100223.09;;;16.40;48.58
19096;BME280;9680;52.520;13.332;2022-09-17T14:38:31;100225.94;;;16.24;49.26
19096;BME280;9680;52.520;13.332;2022-09-17T14:46:17;100220.09;;;16.07;50.14
19096;BME280;9680;52.520;13.332;2022-09-17T14:48:44;100214.53;;;15.99;50.39
19096;BME280;9680;52.520;13.332;2022-09-17T14:51:23;100217.75;;;16.02;50.49
19096;BME280;9680;52.520;13.332;2022-09-17T14:56:32;100211.59;;;15.91;49.42
19096;BME280;9680;52.520;13.332;2022-09-17T14:58:58;100215.31;;;15.86;48.88
19096;BME280;9680;52.520;13.332;2022-09-17T15:01:27;100212.28;;;15.80;47.81
19096;BME280;9680;52.520;13.332;2022-09-17T15:06:37;100210.91;;;15.48;48.12
19096;BME280;9680;52.520;13.332;2022-09-17T15:09:03;100206.06;;;15.42;48.82
19096;BME280;9680;52.520;13.332;2022-09-17T15:11:30;100213.19;;;15.40;49.08
19096;BME280;9680;52.520;13.332;2022-09-17T15:13:55;100206.75;;;15.31;49.47
19096;BME280;9680;52.520;13.332;2022-09-17T15:16:24;100213.38;;;15.24;49.90
19096;BME280;9680;52.520;13.332;2022-09-17T15:18:54;100212.13;;;15.29;50.51
19096;BME280;9680;52.520;13.332;2022-09-17T15:21:39;100210.97;;;15.47;50.74
19096;BME280;9680;52.520;13.332;2022-09-17T15:27:13;100199.25;;;15.65;49.63
19096;BME280;9680;52.520;13.332;2022-09-17T15:29:43;100203.44;;;15.55;49.49
19096;BME280;9680;52.520;13.332;2022-09-17T15:32:11;100200.94;;;15.79;50.45
19096;BME280;9680;52.520;13.332;2022-09-17T15:34:39;100202.59;;;15.80;50.00
19096;BME280;9680;52.520;13.332;2022-09-17T15:37:15;100214.28;;;15.63;49.88
19096;BME280;9680;52.520;13.332;2022-09-17T15:39:42;100197.84;;;15.47;49.98
19096;BME280;9680;52.520;13.332;2022-09-17T15:42:32;100204.75;;;15.22;50.59